• +62 31 8667540

  • +62 31 8668989 (24 jam)

  • Stasiun Meteorologi Juanda

  • Bandar Udara Juanda - Sidoarjo

  • 08:00 - 16:00

  • Senin sampai Jumat

TAF TERAKHIR

TAF WARR 190500Z 1906/2006 30010KT 9999 SCT020
  TEMPO 1907/1911 4000 TSRA SCT018CB
  BECMG 1914/1916 26005KT 7000
  TEMPO 1920/2000 4000 HZ
  BECMG 2000/2002 28010KT 9999

Peringatan Dini Cuaca Hari Ini

Waspadai Hujan dengan Intensitas Sedang hingga Lebat disertai Petir dan Angin Kencang Sesaat pada siang atau sore hari di wilayah Batu, Jombang, Kota dan Kab.Malang, Kota dan Kab.Kediri, Kota dan Kab.Blitar, Tulungagung, Kota dan Kab.Mojokerto, Kota dan Kab.Probolinggo, Kota dan Kab.Pasuruan, Magetan, Bangkalan, Surabaya, Lamongan, Lumajang, Situbondo. Serta Waspadai Ketinggian Gelombang mencapai 3.5 m di Perairan Selatan Jawa Timur, dan ketinggian mencapai 2.5m di Perairan Kep.Masalembu, dan Perairan P. Bawean.